Logo Brunsvigian Airlines

Die löwenstarke Airline aus Braunschweig

Charts auf der Seite von VATEUD

EDGS 041950Z 29007KT 9999 FEW018 BKN080 16/15 Q1018

flugnummerleerzeichenankunftleerzeichenplanmaessig
ABS103__BRAUNSCHWEIG_____10doppelpunkt30

flugnummerleerzeichenankunftleerzeichenplanmaessig
ABS102__BRAUNSCHWEIG_____10doppelpunkt05

Der Siegerlandflughafen dient primär der allgemeinen Luftfahrt. Durch das besondere Konzept der Brunsvigian ist es möglich, auch solche Flughäfen anzufliegen, so gewinnen Sie Zeit beim Check-In und bei der Anreise.

Kontakt   Impressum

Valid HTML 4.01 Transitional CSS ist valide!